Rockville Center, New York
Current Conditions -  °F | °C
As of 3:51 AM on Thursday 23 Oct 2014 (Local Time) from KJFK Reporting Station
Overcast Overcast  
Wind Chill: 54°   Ceiling: 2300
Heat Index: 54°   Visibility: 10mi
Dew Point: 46°   Wind: 26mph
Humidity: 75%   Direction: 360°N
Pressure: 29.68"   Gusts: 33mph
Location:  40.6644°N, 73.6384°W
Report Text: KJFK 230751Z 36023G29KT 10SM OVC023 12/08 A2968 RMK AO2 PK WND 01031/0706 SLP051 T01220078
Loading
Personal Weather Stations






























Interactive Weather Map
Tropical Storm Tracking
New forecast layout! Learn more

10-Day Weather Forecast

Advertisements
Track Severe Weather on mobile